createdAt,value
2022-10-15T00:01:08.437Z,12.73
2022-10-15T00:03:17.140Z,12.53
2022-10-15T00:05:27.807Z,12.47
2022-10-15T00:07:36.847Z,14.77
2022-10-15T00:09:46.183Z,17.07
2022-10-15T00:11:55.235Z,14.87
2022-10-15T00:14:04.283Z,12.73
2022-10-15T00:16:15.070Z,12.43
2022-10-15T00:18:23.931Z,14.40
2022-10-15T00:20:45.175Z,14.03
2022-10-15T00:22:54.184Z,12.63
2022-10-15T00:25:03.491Z,15.13
2022-10-15T00:27:12.539Z,13.93
2022-10-15T00:29:21.282Z,14.67
2022-10-15T00:31:31.196Z,14.13
2022-10-15T00:33:40.795Z,11.80
2022-10-15T00:35:59.832Z,10.17
2022-10-15T00:38:08.715Z,12.87
2022-10-15T00:40:17.694Z,10.13
2022-10-15T00:42:26.712Z,13.07
2022-10-15T00:44:53.737Z,11.63
2022-10-15T00:47:06.143Z,14.47
2022-10-15T00:49:19.430Z,11.07
2022-10-15T00:51:32.204Z,11.77
2022-10-15T00:53:41.753Z,12.03
2022-10-15T00:55:51.247Z,14.00
2022-10-15T00:58:01.662Z,14.77
2022-10-15T01:00:11.619Z,12.47
2022-10-15T01:02:21.160Z,15.27
2022-10-15T01:04:30.439Z,14.90
2022-10-15T01:06:43.232Z,14.67
2022-10-15T01:08:52.711Z,14.40
2022-10-15T01:11:07.363Z,12.67
2022-10-15T01:13:21.293Z,12.10
2022-10-15T01:15:37.410Z,12.80
2022-10-15T01:17:48.440Z,10.70
2022-10-15T01:20:11.980Z,12.70
2022-10-15T01:22:29.715Z,11.53
2022-10-15T01:24:55.912Z,9.47
2022-10-15T01:27:24.934Z,12.60
2022-10-15T01:29:43.709Z,10.97
2022-10-15T01:31:59.401Z,11.17
2022-10-15T01:34:17.261Z,13.07
2022-10-15T01:36:34.116Z,13.57
2022-10-15T01:38:48.534Z,12.97
2022-10-15T01:40:59.817Z,11.97
2022-10-15T01:43:11.796Z,12.87
2022-10-15T01:45:25.638Z,10.60
2022-10-15T01:47:38.158Z,14.20
2022-10-15T01:49:48.303Z,11.17
2022-10-15T01:51:57.975Z,9.77
2022-10-15T01:54:07.712Z,9.47
2022-10-15T01:56:18.273Z,10.63
2022-10-15T01:58:27.528Z,10.87
2022-10-15T02:00:36.336Z,8.60
2022-10-15T02:02:46.949Z,11.40
2022-10-15T02:04:55.764Z,9.13
2022-10-15T02:07:07.025Z,11.10
2022-10-15T02:09:19.115Z,9.63
2022-10-15T02:11:28.079Z,8.27
2022-10-15T02:13:41.590Z,6.97
2022-10-15T02:15:55.114Z,6.53
2022-10-15T02:18:08.075Z,7.03
2022-10-15T02:20:17.883Z,6.97
2022-10-15T02:22:27.734Z,6.77
2022-10-15T02:24:39.533Z,9.80
2022-10-15T02:26:49.171Z,9.17
2022-10-15T02:29:00.324Z,6.90
2022-10-15T02:31:10.163Z,7.70
2022-10-15T02:33:21.586Z,8.10
2022-10-15T02:35:30.608Z,7.97
2022-10-15T02:37:41.582Z,7.47
2022-10-15T02:39:50.209Z,9.60
2022-10-15T02:42:01.256Z,9.37
2022-10-15T02:44:10.377Z,9.03
2022-10-15T02:46:19.935Z,6.63
2022-10-15T02:48:30.581Z,10.67
2022-10-15T02:50:39.460Z,10.63
2022-10-15T02:52:48.116Z,5.60
2022-10-15T02:54:56.807Z,7.00
2022-10-15T02:57:05.737Z,8.80
2022-10-15T02:59:14.718Z,7.13
2022-10-15T03:01:25.512Z,7.07
2022-10-15T03:03:36.461Z,7.87
2022-10-15T03:05:46.927Z,6.73
2022-10-15T03:07:55.884Z,5.90
2022-10-15T03:10:04.620Z,8.03
2022-10-15T03:12:13.238Z,5.83
2022-10-15T03:14:22.238Z,5.27
2022-10-15T03:16:33.194Z,10.57
2022-10-15T03:18:43.969Z,6.73
2022-10-15T03:20:55.740Z,10.50
2022-10-15T03:23:04.762Z,7.53
2022-10-15T03:25:14.176Z,8.30
2022-10-15T03:27:23.272Z,8.27
2022-10-15T03:29:32.058Z,8.00
2022-10-15T03:31:41.345Z,8.73
2022-10-15T03:33:52.068Z,9.60
2022-10-15T03:36:00.967Z,9.67
2022-10-15T03:38:10.424Z,8.50
2022-10-15T03:40:19.654Z,8.73
2022-10-15T03:42:28.725Z,8.77
2022-10-15T03:44:37.672Z,10.20
2022-10-15T03:46:48.542Z,7.83
2022-10-15T03:49:01.745Z,6.80
2022-10-15T03:51:11.944Z,9.03
2022-10-15T03:53:20.700Z,6.50
2022-10-15T03:55:29.496Z,10.27
2022-10-15T03:57:38.527Z,7.37
2022-10-15T03:59:47.272Z,6.40
2022-10-15T04:01:55.944Z,7.50
2022-10-15T04:04:06.726Z,7.80
2022-10-15T04:06:15.767Z,7.30
2022-10-15T04:08:24.432Z,8.03
2022-10-15T04:10:33.081Z,5.63
2022-10-15T04:12:42.131Z,6.87
2022-10-15T04:14:51.557Z,8.37
2022-10-15T04:17:00.450Z,6.10
2022-10-15T04:19:11.523Z,5.97
2022-10-15T04:21:21.685Z,8.03
2022-10-15T04:23:30.470Z,10.60
2022-10-15T04:25:39.465Z,10.30
2022-10-15T04:27:48.658Z,6.27
2022-10-15T04:29:57.491Z,6.70
2022-10-15T04:32:06.658Z,8.90
2022-10-15T04:34:16.696Z,7.23
2022-10-15T04:36:25.652Z,8.33
2022-10-15T04:38:34.754Z,10.33
2022-10-15T04:40:43.474Z,9.77
2022-10-15T04:42:52.350Z,7.10
2022-10-15T04:45:01.536Z,8.97
2022-10-15T04:47:10.292Z,9.30
2022-10-15T04:49:20.984Z,10.20
2022-10-15T04:51:29.934Z,10.13
2022-10-15T04:53:38.463Z,7.53
2022-10-15T04:55:47.368Z,9.53
2022-10-15T04:57:56.409Z,10.03
2022-10-15T05:00:06.062Z,10.73
2022-10-15T05:02:17.343Z,9.47
2022-10-15T05:04:28.306Z,11.47
2022-10-15T05:06:37.567Z,17.77
2022-10-15T05:08:46.757Z,9.63
2022-10-15T05:10:55.340Z,10.70
2022-10-15T05:13:04.105Z,14.23
2022-10-15T05:15:12.843Z,12.43
2022-10-15T05:17:22.195Z,14.63
2022-10-15T05:19:33.598Z,15.97
2022-10-15T05:21:42.647Z,16.40
2022-10-15T05:23:51.694Z,17.17
2022-10-15T05:26:01.928Z,19.27
2022-10-15T05:28:10.905Z,21.30
2022-10-15T05:30:19.683Z,23.00
2022-10-15T05:32:28.402Z,22.00
2022-10-15T05:34:39.129Z,21.83
2022-10-15T05:36:47.792Z,26.77
2022-10-15T05:38:57.488Z,22.80
2022-10-15T05:41:06.619Z,23.17
2022-10-15T05:43:15.428Z,27.67
2022-10-15T05:45:24.482Z,28.77
2022-10-15T05:47:33.173Z,30.07
2022-10-15T05:49:43.592Z,26.07
2022-10-15T05:51:52.255Z,25.63
2022-10-15T05:54:01.753Z,25.37
2022-10-15T05:56:10.377Z,25.07
2022-10-15T05:58:19.003Z,23.20
2022-10-15T06:00:28.618Z,29.60
2022-10-15T06:02:37.608Z,27.97
2022-10-15T06:04:49.614Z,30.33
2022-10-15T06:06:58.594Z,29.90
2022-10-15T06:09:07.083Z,23.73
2022-10-15T06:11:16.359Z,23.80
2022-10-15T06:15:42.243Z,27.87
2022-10-15T06:17:55.173Z,23.93
2022-10-15T06:20:06.412Z,24.23
2022-10-15T06:22:15.277Z,22.10
2022-10-15T06:24:24.762Z,25.60
2022-10-15T06:26:33.391Z,26.07
2022-10-15T06:28:42.106Z,23.57
2022-10-15T06:30:50.848Z,30.03
2022-10-15T06:33:00.058Z,25.23
2022-10-15T06:35:11.681Z,26.53
2022-10-15T06:37:20.763Z,25.27
2022-10-15T06:39:29.983Z,28.63
2022-10-15T06:41:38.824Z,30.27
2022-10-15T06:43:47.767Z,28.43
2022-10-15T06:45:56.747Z,29.93
2022-10-15T06:48:06.284Z,25.70
2022-10-15T06:50:17.312Z,25.77
2022-10-15T06:52:26.373Z,26.60
2022-10-15T06:54:35.184Z,31.10
2022-10-15T06:56:44.302Z,30.37
2022-10-15T06:58:52.877Z,30.80
2022-10-15T07:01:02.619Z,24.53
2022-10-15T07:03:12.089Z,26.43
2022-10-15T07:05:23.254Z,26.30
2022-10-15T07:07:32.036Z,26.07
2022-10-15T07:09:41.114Z,25.23
2022-10-15T07:11:49.845Z,25.00
2022-10-15T07:13:58.788Z,26.70
2022-10-15T07:16:08.304Z,20.73
2022-10-15T07:18:17.485Z,24.97
2022-10-15T07:20:28.353Z,23.00
2022-10-15T07:22:37.277Z,26.30
2022-10-15T07:24:46.110Z,23.27
2022-10-15T07:26:54.796Z,28.50
2022-10-15T07:29:03.876Z,29.87
2022-10-15T07:31:12.749Z,29.03
2022-10-15T07:33:21.676Z,29.30
2022-10-15T07:35:32.582Z,33.23
2022-10-15T07:37:41.877Z,39.70
2022-10-15T07:39:50.568Z,30.83
2022-10-15T07:41:59.301Z,33.67
2022-10-15T07:44:08.151Z,32.97
2022-10-15T07:46:17.075Z,35.53
2022-10-15T07:48:26.517Z,38.67
2022-10-15T07:50:38.208Z,35.83
2022-10-15T07:52:49.910Z,37.27
2022-10-15T07:54:58.814Z,36.23
2022-10-15T07:57:08.466Z,37.63
2022-10-15T07:59:17.968Z,38.27
2022-10-15T08:01:26.519Z,37.60
2022-10-15T08:03:35.679Z,37.00
2022-10-15T08:05:46.021Z,37.83
2022-10-15T08:07:54.887Z,33.63
2022-10-15T08:10:05.872Z,32.40
2022-10-15T08:12:14.402Z,32.47
2022-10-15T08:14:23.564Z,36.07
2022-10-15T08:16:32.621Z,30.50
2022-10-15T08:18:41.840Z,27.53
2022-10-15T08:20:52.923Z,29.57
2022-10-15T08:23:03.112Z,30.80
2022-10-15T08:25:12.289Z,26.47
2022-10-15T08:27:20.934Z,31.97
2022-10-15T08:29:30.045Z,32.10
2022-10-15T08:31:39.329Z,25.77
2022-10-15T08:33:48.709Z,28.13
2022-10-15T08:35:59.273Z,25.80
2022-10-15T08:38:08.268Z,26.27
2022-10-15T08:40:17.368Z,26.60
2022-10-15T08:42:31.922Z,24.80
2022-10-15T08:44:41.489Z,24.47
2022-10-15T08:46:51.698Z,24.00
2022-10-15T08:49:02.693Z,24.73
2022-10-15T08:51:15.243Z,23.53
2022-10-15T08:53:25.406Z,25.70
2022-10-15T08:55:37.593Z,23.17
2022-10-15T08:57:48.965Z,23.67
2022-10-15T09:00:02.166Z,26.33
2022-10-15T09:02:18.018Z,24.83
2022-10-15T09:04:29.370Z,24.73
2022-10-15T09:06:40.845Z,25.50
2022-10-15T09:08:53.421Z,26.83
2022-10-15T09:11:04.414Z,23.73
2022-10-15T09:13:16.379Z,27.10
2022-10-15T09:15:27.844Z,25.00
2022-10-15T09:17:37.633Z,24.93
2022-10-15T09:19:47.044Z,25.40
2022-10-15T09:21:57.960Z,24.80
2022-10-15T09:24:07.519Z,28.10
2022-10-15T09:26:21.429Z,23.80
2022-10-15T09:28:36.649Z,26.67
2022-10-15T09:30:48.667Z,24.90
2022-10-15T09:33:00.825Z,27.77
2022-10-15T09:35:16.617Z,25.33
2022-10-15T09:37:29.256Z,24.70
2022-10-15T09:39:45.481Z,23.67
2022-10-15T09:41:59.099Z,24.73
2022-10-15T09:44:11.854Z,23.83
2022-10-15T09:46:21.026Z,24.53
2022-10-15T09:48:30.921Z,24.83
2022-10-15T09:50:43.283Z,23.23
2022-10-15T09:53:03.321Z,21.97
2022-10-15T09:55:20.168Z,25.03
2022-10-15T09:57:29.258Z,17.83
2022-10-15T09:59:38.009Z,21.87
2022-10-15T10:02:00.418Z,19.67
2022-10-15T10:04:13.892Z,20.57
2022-10-15T10:06:24.182Z,21.10
2022-10-15T10:08:37.364Z,17.93
2022-10-15T10:10:46.875Z,18.90
2022-10-15T10:12:56.954Z,20.03
2022-10-15T10:15:07.267Z,18.50
2022-10-15T10:17:17.815Z,19.07
2022-10-15T10:19:26.700Z,20.23
2022-10-15T10:21:37.393Z,18.63
2022-10-15T10:23:48.173Z,21.23
2022-10-15T10:25:58.822Z,16.13
2022-10-15T10:28:17.052Z,21.00
2022-10-15T10:30:27.919Z,21.07
2022-10-15T10:32:38.691Z,17.53
2022-10-15T10:34:52.391Z,20.23
2022-10-15T10:37:05.057Z,21.27
2022-10-15T10:39:19.895Z,21.97
2022-10-15T10:41:48.826Z,21.37
2022-10-15T10:43:59.575Z,20.70
2022-10-15T10:46:12.913Z,20.27
2022-10-15T10:48:22.642Z,21.23
2022-10-15T10:50:33.967Z,21.27
2022-10-15T10:52:43.382Z,22.33
2022-10-15T10:54:56.312Z,22.17
2022-10-15T10:57:07.005Z,23.13
2022-10-15T10:59:18.719Z,23.93
2022-10-15T11:01:27.840Z,22.37
2022-10-15T11:03:40.588Z,21.37
2022-10-15T11:05:49.884Z,24.87
2022-10-15T11:08:03.003Z,23.97
2022-10-15T11:10:16.352Z,26.93
2022-10-15T11:12:43.485Z,25.90
2022-10-15T11:14:56.816Z,28.87
2022-10-15T11:17:11.146Z,23.23
2022-10-15T11:19:59.572Z,27.90
2022-10-15T11:22:08.856Z,29.07
2022-10-15T11:24:18.897Z,26.83
2022-10-15T11:26:41.448Z,29.97
2022-10-15T11:29:13.919Z,31.77
2022-10-15T11:31:29.399Z,30.67
2022-10-15T11:33:46.493Z,34.70
2022-10-15T11:36:00.084Z,25.77
2022-10-15T11:38:16.216Z,29.00
2022-10-15T11:40:32.844Z,30.77
2022-10-15T11:42:44.441Z,30.20
2022-10-15T11:45:02.147Z,23.47
2022-10-15T11:47:20.584Z,27.60
2022-10-15T11:51:49.386Z,26.40
2022-10-15T11:54:05.113Z,32.40
2022-10-15T11:56:15.709Z,30.90
2022-10-15T11:58:30.131Z,27.13
2022-10-15T12:00:42.558Z,31.13
2022-10-15T12:02:53.635Z,30.80
2022-10-15T12:05:03.768Z,26.53
2022-10-15T12:07:16.263Z,33.93
2022-10-15T12:09:27.912Z,28.27
2022-10-15T12:11:42.646Z,30.40
2022-10-15T12:13:55.864Z,32.87
2022-10-15T12:16:10.961Z,30.80
2022-10-15T12:18:25.362Z,25.50
2022-10-15T12:20:34.613Z,29.83
2022-10-15T12:22:55.698Z,30.33
2022-10-15T12:25:04.995Z,34.57
2022-10-15T12:27:18.238Z,33.80
2022-10-15T12:29:28.671Z,27.70
2022-10-15T12:31:48.564Z,30.17
2022-10-15T12:33:59.983Z,31.33
2022-10-15T12:36:10.776Z,32.97
2022-10-15T12:38:27.769Z,30.63
2022-10-15T12:40:37.586Z,31.20
2022-10-15T12:42:46.816Z,31.03
2022-10-15T12:44:56.026Z,31.03
2022-10-15T12:47:05.206Z,32.87
2022-10-15T12:49:33.290Z,30.07
2022-10-15T12:51:44.144Z,30.57
2022-10-15T12:53:55.414Z,33.17
2022-10-15T12:56:25.156Z,31.00
2022-10-15T12:58:34.862Z,30.23
2022-10-15T13:00:45.227Z,30.27
2022-10-15T13:02:54.818Z,34.77
2022-10-15T13:05:03.903Z,32.47
2022-10-15T13:07:16.657Z,32.13
2022-10-15T13:09:30.748Z,30.17
2022-10-15T13:11:43.077Z,30.70
2022-10-15T13:13:53.211Z,24.83
2022-10-15T13:16:03.254Z,30.40
2022-10-15T13:18:15.973Z,25.97
2022-10-15T13:20:31.710Z,24.13
2022-10-15T13:22:42.452Z,27.20
2022-10-15T13:24:51.424Z,24.90
2022-10-15T13:27:04.482Z,22.50
2022-10-15T13:29:17.465Z,25.47
2022-10-15T13:31:30.413Z,24.77
2022-10-15T13:33:41.730Z,27.23
2022-10-15T13:35:50.713Z,24.87
2022-10-15T13:38:02.045Z,22.10
2022-10-15T13:40:11.666Z,24.13
2022-10-15T13:42:21.797Z,27.30
2022-10-15T13:44:30.876Z,28.67
2022-10-15T13:46:40.317Z,22.03
2022-10-15T13:48:49.020Z,24.87
2022-10-15T13:50:59.141Z,27.53
2022-10-15T13:53:15.105Z,25.43
2022-10-15T13:55:25.848Z,28.10
2022-10-15T13:57:34.702Z,26.53
2022-10-15T13:59:47.144Z,30.27
2022-10-15T14:02:01.355Z,31.97
2022-10-15T14:04:17.613Z,31.23
2022-10-15T14:06:27.367Z,36.40
2022-10-15T14:08:38.615Z,30.43
2022-10-15T14:10:55.414Z,31.07
2022-10-15T14:13:04.139Z,28.33
2022-10-15T14:15:31.897Z,27.03
2022-10-15T14:17:40.726Z,29.27
2022-10-15T14:20:14.297Z,29.57
2022-10-15T14:22:22.398Z,30.67
2022-10-15T14:24:35.467Z,34.23
2022-10-15T14:26:45.072Z,30.17
2022-10-15T14:28:56.091Z,29.10
2022-10-15T14:31:05.402Z,34.07
2022-10-15T14:33:29.055Z,31.90
2022-10-15T14:35:38.892Z,32.20
2022-10-15T14:37:47.714Z,31.70
2022-10-15T14:40:06.392Z,34.17
2022-10-15T14:42:30.003Z,32.07
2022-10-15T14:44:46.931Z,31.80
2022-10-15T14:47:02.141Z,34.60
2022-10-15T14:49:28.634Z,31.70
2022-10-15T14:51:37.438Z,33.83
2022-10-15T14:53:47.473Z,29.90
2022-10-15T14:56:00.577Z,33.20
2022-10-15T14:58:10.896Z,33.50
2022-10-15T15:00:24.813Z,33.13
2022-10-15T15:02:33.655Z,34.37
2022-10-15T15:04:44.273Z,33.20
2022-10-15T15:06:53.400Z,33.33
2022-10-15T15:09:02.493Z,34.73
2022-10-15T15:11:15.050Z,35.80
2022-10-15T15:13:25.572Z,43.53
2022-10-15T15:15:35.576Z,37.37
2022-10-15T15:17:45.115Z,36.87
2022-10-15T15:19:55.671Z,39.53
2022-10-15T15:22:04.691Z,35.27
2022-10-15T15:24:14.027Z,40.43
2022-10-15T15:26:25.169Z,38.40
2022-10-15T15:28:34.321Z,40.07
2022-10-15T15:30:44.130Z,44.03
2022-10-15T15:32:53.452Z,40.43
2022-10-15T15:35:03.166Z,48.23
2022-10-15T15:37:15.092Z,44.77
2022-10-15T15:39:24.023Z,45.43
2022-10-15T15:41:35.222Z,45.53
2022-10-15T15:43:44.479Z,46.57
2022-10-15T15:45:53.426Z,53.03
2022-10-15T15:48:03.865Z,44.07
2022-10-15T15:50:13.158Z,47.10
2022-10-15T15:52:22.477Z,47.30
2022-10-15T15:54:31.658Z,46.93
2022-10-15T15:58:55.759Z,52.20
2022-10-15T16:01:04.749Z,50.80
2022-10-15T16:03:14.156Z,53.80
2022-10-15T16:05:23.904Z,49.47
2022-10-15T16:07:33.296Z,53.83
2022-10-15T16:09:42.602Z,50.60
2022-10-15T16:11:54.033Z,50.63
2022-10-15T16:14:05.896Z,55.93
2022-10-15T16:16:18.547Z,55.47
2022-10-15T16:18:27.587Z,55.00
2022-10-15T16:20:40.672Z,56.87
2022-10-15T16:22:51.465Z,60.10
2022-10-15T16:25:00.260Z,56.07
2022-10-15T16:27:10.927Z,59.33
2022-10-15T16:29:19.980Z,61.17
2022-10-15T16:31:32.006Z,61.10
2022-10-15T16:33:41.367Z,57.83
2022-10-15T16:35:53.634Z,80.37
2022-10-15T16:38:02.801Z,73.30
2022-10-15T16:40:12.424Z,70.33
2022-10-15T16:42:23.066Z,68.37
2022-10-15T16:44:32.648Z,67.50
2022-10-15T16:46:41.719Z,63.93
2022-10-15T16:48:55.159Z,69.97
2022-10-15T16:51:05.669Z,69.07
2022-10-15T16:53:15.304Z,69.90
2022-10-15T16:55:25.183Z,65.90
2022-10-15T16:57:36.076Z,64.40
2022-10-15T16:59:45.427Z,61.90
2022-10-15T17:01:55.258Z,68.23
2022-10-15T17:04:07.024Z,59.70
2022-10-15T17:06:17.792Z,66.37
2022-10-15T17:08:29.910Z,59.73
2022-10-15T17:10:45.835Z,67.83
2022-10-15T17:12:56.289Z,70.53
2022-10-15T17:15:04.969Z,77.87
2022-10-15T17:17:14.080Z,75.40
2022-10-15T17:19:27.680Z,73.27
2022-10-15T17:21:42.482Z,73.77
2022-10-15T17:23:54.732Z,75.67
2022-10-15T17:26:05.414Z,75.10
2022-10-15T17:28:16.108Z,79.83
2022-10-15T17:30:27.051Z,76.87
2022-10-15T17:32:37.759Z,80.50
2022-10-15T17:34:46.937Z,80.60
2022-10-15T17:36:56.616Z,99.33
2022-10-15T17:39:06.490Z,85.63
2022-10-15T17:41:16.469Z,81.20
2022-10-15T17:43:26.764Z,75.13
2022-10-15T17:45:36.040Z,82.60
2022-10-15T17:47:45.158Z,78.93
2022-10-15T17:49:54.623Z,89.73
2022-10-15T17:52:03.436Z,85.87
2022-10-15T17:54:12.099Z,85.50
2022-10-15T17:56:21.639Z,87.07
2022-10-15T17:58:31.950Z,85.10
2022-10-15T18:00:40.878Z,81.20
2022-10-15T18:02:50.703Z,84.83
2022-10-15T18:05:01.215Z,99.53
2022-10-15T18:07:10.397Z,78.17
2022-10-15T18:09:19.956Z,88.33
2022-10-15T18:11:29.613Z,88.70
2022-10-15T18:13:40.820Z,82.37
2022-10-15T18:15:50.912Z,83.03
2022-10-15T18:17:59.763Z,83.80
2022-10-15T18:20:11.483Z,86.63
2022-10-15T18:22:23.347Z,80.30
2022-10-15T18:24:33.313Z,82.50
2022-10-15T18:26:42.281Z,82.03
2022-10-15T18:28:53.336Z,72.97
2022-10-15T18:31:04.847Z,85.23
2022-10-15T18:33:13.523Z,83.03
2022-10-15T18:35:22.470Z,83.13
2022-10-15T18:37:31.377Z,88.07
2022-10-15T18:39:40.261Z,88.03
2022-10-15T18:41:49.766Z,80.40
2022-10-15T18:44:00.848Z,88.67
2022-10-15T18:46:09.754Z,90.33
2022-10-15T18:48:18.924Z,90.33
2022-10-15T18:50:28.125Z,95.73
2022-10-15T18:52:40.718Z,84.43
2022-10-15T18:54:49.764Z,86.53
2022-10-15T18:56:59.404Z,86.27
2022-10-15T18:59:10.177Z,84.90
2022-10-15T19:01:26.652Z,96.57
2022-10-15T19:03:36.164Z,83.93
2022-10-15T19:05:44.797Z,84.13
2022-10-15T19:07:56.147Z,88.80
2022-10-15T19:10:05.347Z,82.33
2022-10-15T19:12:14.653Z,85.63
2022-10-15T19:14:25.618Z,87.60
2022-10-15T19:16:34.403Z,97.20
2022-10-15T19:18:43.916Z,81.53
2022-10-15T19:20:52.831Z,84.70
2022-10-15T19:23:01.483Z,80.80
2022-10-15T19:25:10.909Z,82.57
2022-10-15T19:27:20.524Z,83.87
2022-10-15T19:29:34.417Z,74.80
2022-10-15T19:31:45.374Z,75.47
2022-10-15T19:33:54.678Z,81.97
2022-10-15T19:36:04.283Z,70.67
2022-10-15T19:38:13.539Z,71.80
2022-10-15T19:40:22.987Z,64.60
2022-10-15T19:42:32.197Z,64.93
2022-10-15T19:44:43.147Z,65.30
2022-10-15T19:46:52.376Z,60.60
2022-10-15T19:49:01.204Z,64.00
2022-10-15T19:51:10.476Z,59.93
2022-10-15T19:53:19.938Z,57.77
2022-10-15T19:55:29.114Z,54.43
2022-10-15T19:57:38.329Z,53.00
2022-10-15T19:59:49.260Z,53.60
2022-10-15T20:01:58.129Z,51.07
2022-10-15T20:04:08.113Z,52.80
2022-10-15T20:06:17.347Z,48.77
2022-10-15T20:08:26.733Z,50.83
2022-10-15T20:10:36.388Z,44.53
2022-10-15T20:14:55.865Z,41.83
2022-10-15T20:17:05.544Z,42.03
2022-10-15T20:19:14.682Z,41.37
2022-10-15T20:21:24.215Z,38.60
2022-10-15T20:23:33.762Z,43.70
2022-10-15T20:25:42.743Z,42.80
2022-10-15T20:27:51.759Z,45.27
2022-10-15T20:30:03.056Z,43.67
2022-10-15T20:32:23.419Z,41.60
2022-10-15T20:34:42.681Z,42.57
2022-10-15T20:36:53.838Z,46.53
2022-10-15T20:39:03.067Z,46.20
2022-10-15T20:41:12.789Z,51.90
2022-10-15T20:43:23.987Z,41.77
2022-10-15T20:45:36.385Z,58.27
2022-10-15T20:47:47.287Z,54.27
2022-10-15T20:49:56.552Z,46.80
2022-10-15T20:52:06.167Z,45.67
2022-10-15T20:54:16.363Z,53.87
2022-10-15T20:56:25.695Z,54.43
2022-10-15T20:58:34.688Z,52.73
2022-10-15T21:00:45.449Z,53.87
2022-10-15T21:02:54.502Z,59.00
2022-10-15T21:05:03.754Z,52.67
2022-10-15T21:07:12.938Z,56.67
2022-10-15T21:09:22.133Z,56.27
2022-10-15T21:11:31.776Z,56.17
2022-10-15T21:13:40.799Z,59.10
2022-10-15T21:15:51.517Z,68.73
2022-10-15T21:18:00.484Z,65.67
2022-10-15T21:20:10.506Z,64.77
2022-10-15T21:22:19.148Z,64.13
2022-10-15T21:24:28.568Z,63.37
2022-10-15T21:26:37.540Z,68.00
2022-10-15T21:28:47.283Z,65.60
2022-10-15T21:30:58.168Z,68.07
2022-10-15T21:33:06.749Z,62.53
2022-10-15T21:35:15.441Z,72.07
2022-10-15T21:37:24.731Z,71.93
2022-10-15T21:39:34.095Z,72.43
2022-10-15T21:41:43.421Z,74.40
2022-10-15T21:43:52.451Z,71.47
2022-10-15T21:46:08.021Z,75.70
2022-10-15T21:48:16.993Z,74.20
2022-10-15T21:50:25.980Z,78.07
2022-10-15T21:52:35.307Z,76.07
2022-10-15T21:54:43.917Z,70.30
2022-10-15T21:56:52.639Z,73.30
2022-10-15T21:59:01.622Z,80.77
2022-10-15T22:01:15.873Z,78.63
2022-10-15T22:03:26.477Z,75.23
2022-10-15T22:05:35.695Z,72.60
2022-10-15T22:07:44.920Z,71.97
2022-10-15T22:09:54.003Z,78.03
2022-10-15T22:12:02.996Z,67.40
2022-10-15T22:14:13.315Z,76.33
2022-10-15T22:16:23.991Z,73.37
2022-10-15T22:18:33.078Z,76.97
2022-10-15T22:22:56.498Z,79.20
2022-10-15T22:25:05.829Z,73.70
2022-10-15T22:27:15.148Z,77.20
2022-10-15T22:29:24.692Z,80.50
2022-10-15T22:31:36.150Z,68.53
2022-10-15T22:33:45.532Z,77.67
2022-10-15T22:35:54.193Z,74.90
2022-10-15T22:38:03.233Z,65.00
2022-10-15T22:40:16.896Z,72.37
2022-10-15T22:42:26.480Z,71.17
2022-10-15T22:44:35.912Z,69.30
2022-10-15T22:46:49.889Z,73.13
2022-10-15T22:48:58.989Z,71.80
2022-10-15T22:51:09.664Z,60.63
2022-10-15T22:53:18.739Z,58.07
2022-10-15T22:55:28.064Z,65.90
2022-10-15T22:57:38.252Z,65.53
2022-10-15T22:59:48.467Z,57.57
2022-10-15T23:01:58.948Z,61.40
2022-10-15T23:04:08.840Z,53.93
2022-10-15T23:06:18.282Z,54.87
2022-10-15T23:08:27.700Z,56.73
2022-10-15T23:10:36.649Z,54.60
2022-10-15T23:12:46.097Z,58.97
2022-10-15T23:14:54.935Z,54.20
2022-10-15T23:17:05.196Z,54.17
2022-10-15T23:19:15.162Z,53.57
2022-10-15T23:21:28.644Z,52.23
2022-10-15T23:23:37.902Z,57.67
2022-10-15T23:25:47.136Z,51.53
2022-10-15T23:27:55.990Z,52.47
2022-10-15T23:30:14.370Z,52.03
2022-10-15T23:32:31.432Z,54.53
2022-10-15T23:34:40.208Z,46.80
2022-10-15T23:36:49.614Z,46.47
2022-10-15T23:38:59.317Z,44.60
2022-10-15T23:41:10.006Z,43.70
2022-10-15T23:43:18.785Z,41.47
2022-10-15T23:45:27.905Z,35.60
2022-10-15T23:47:38.676Z,38.93
2022-10-15T23:49:48.129Z,37.70
2022-10-15T23:51:57.810Z,37.40
2022-10-15T23:54:12.060Z,34.73
2022-10-15T23:56:21.321Z,37.27
2022-10-15T23:58:32.322Z,36.67
